Time;durP1;ratioP1;P1;durP2;ratioP2;P2;SDS_P1;SDS_P2;PMS_P1;PMS_P2;Temp;Humidity;BMP_temperature;BMP_pressure;BME280_temperature;BME280_humidity;BME280_pressure;Samples;Min_cycle;Max_cycle;Signal;HPM_P1;HPM_P2
2021/08/10 00:01:05;;;;;;;3.72;3.40;;;24.60;56.50;;;;;;5065024;28;20036;-36
2021/08/10 00:03:31;;;;;;;3.97;3.50;;;24.60;56.60;;;;;;5064764;28;20032;-36
2021/08/10 00:05:58;;;;;;;3.92;3.53;;;24.50;56.40;;;;;;5063154;28;20068;-36
2021/08/10 00:08:24;;;;;;;3.87;3.47;;;24.50;56.50;;;;;;5064692;28;20087;-36
2021/08/10 00:10:50;;;;;;;4.10;3.70;;;24.50;56.70;;;;;;5064800;28;20025;-36
2021/08/10 00:13:18;;;;;;;4.00;3.67;;;24.50;56.70;;;;;;5069139;28;20066;-36
2021/08/10 00:15:44;;;;;;;3.67;3.38;;;24.50;56.70;;;;;;5044398;28;20401;-36
2021/08/10 00:18:10;;;;;;;4.22;3.83;;;24.40;56.90;;;;;;5044621;28;20056;-36
2021/08/10 00:20:37;;;;;;;4.10;3.70;;;24.40;56.80;;;;;;5044395;28;20060;-36
2021/08/10 00:23:03;;;;;;;3.90;3.60;;;24.40;56.90;;;;;;5044369;28;20058;-36
2021/08/10 00:25:29;;;;;;;4.00;3.70;;;24.30;56.90;;;;;;5057439;28;20012;-36
2021/08/10 00:27:56;;;;;;;3.70;3.40;;;24.30;56.60;;;;;;5084478;28;20044;-36
2021/08/10 00:30:22;;;;;;;4.00;3.70;;;24.30;56.80;;;;;;5084343;28;20020;-36
2021/08/10 00:32:48;;;;;;;4.00;3.60;;;24.20;56.70;;;;;;5084429;28;20272;-35
2021/08/10 00:35:14;;;;;;;3.47;3.17;;;24.20;56.70;;;;;;5084049;28;20027;-36
2021/08/10 00:37:41;;;;;;;3.63;3.33;;;24.20;56.70;;;;;;5084284;28;20017;-36
2021/08/10 00:40:07;;;;;;;4.07;3.67;;;24.10;56.80;;;;;;5084212;28;20052;-36
2021/08/10 00:42:34;;;;;;;4.28;3.88;;;24.10;56.60;;;;;;5084203;28;20037;-36
2021/08/10 00:45:00;;;;;;;4.07;3.67;;;24.10;56.70;;;;;;5079313;28;20467;-35
2021/08/10 00:47:26;;;;;;;4.70;4.30;;;24.10;56.90;;;;;;5084129;28;20017;-36
2021/08/10 00:49:52;;;;;;;4.55;4.15;;;24.00;56.80;;;;;;5084219;28;20062;-36
2021/08/10 00:52:18;;;;;;;4.50;4.10;;;24.00;56.80;;;;;;5084082;28;20051;-36
2021/08/10 00:54:44;;;;;;;4.50;4.10;;;24.00;56.90;;;;;;5083884;28;20036;-36
2021/08/10 00:57:10;;;;;;;4.47;4.07;;;24.00;56.90;;;;;;5083539;28;20092;-36
2021/08/10 00:59:37;;;;;;;4.22;3.83;;;24.00;57.00;;;;;;5083837;28;20067;-36
2021/08/10 01:02:04;;;;;;;4.07;3.70;;;23.90;57.00;;;;;;5082755;28;20020;-35
2021/08/10 01:04:30;;;;;;;;;;;23.90;57.00;;;;;;5080386;28;20028;-36
2021/08/10 01:07:07;;;;;;;4.18;3.78;;;23.90;57.80;;;;;;5083328;28;19915;-36
2021/08/10 01:09:46;;;;;;;4.38;3.97;;;23.80;56.80;;;;;;5082212;28;20047;-36
2021/08/10 01:12:40;;;;;;;4.10;3.72;;;23.80;57.00;;;;;;5083387;28;20036;-36
2021/08/10 01:15:12;;;;;;;4.40;4.00;;;23.80;57.00;;;;;;5077056;28;20033;-36
2021/08/10 01:18:04;;;;;;;3.88;3.47;;;23.70;57.10;;;;;;5083303;28;20035;-36
2021/08/10 01:20:53;;;;;;;4.35;3.95;;;23.70;57.10;;;;;;5040615;28;20049;-36
2021/08/10 01:23:24;;;;;;;4.30;3.90;;;23.70;57.10;;;;;;5026800;28;20049;-36
2021/08/10 01:26:16;;;;;;;4.45;4.05;;;23.60;57.00;;;;;;5023948;28;20030;-35
2021/08/10 01:28:53;;;;;;;4.00;3.60;;;23.60;57.10;;;;;;5024091;28;20083;-36
2021/08/10 01:31:33;;;;;;;4.20;3.80;;;23.60;56.90;;;;;;5024559;28;20029;-36
2021/08/10 01:34:04;;;;;;;4.55;4.15;;;23.60;56.90;;;;;;5037234;28;21417;-36
2021/08/10 01:36:31;;;;;;;4.68;3.70;;;23.50;56.90;;;;;;5023768;28;20060;-36
2021/08/10 01:38:59;;;;;;;4.88;4.40;;;23.50;57.30;;;;;;5007721;28;20163;-36
2021/08/10 01:41:26;;;;;;;4.40;3.97;;;23.50;57.30;;;;;;5040409;28;20056;-36
2021/08/10 01:43:53;;;;;;;4.43;4.03;;;23.50;57.40;;;;;;5019169;28;20617;-36
2021/08/10 01:46:21;;;;;;;4.13;3.75;;;23.40;57.20;;;;;;5023869;28;20105;-35
2021/08/10 01:48:48;;;;;;;4.28;3.88;;;23.40;57.00;;;;;;5007604;28;20045;-36
2021/08/10 01:51:14;;;;;;;4.57;3.97;;;23.30;57.40;;;;;;5007390;28;20093;-36
2021/08/10 01:53:40;;;;;;;4.72;4.15;;;23.30;57.60;;;;;;5023574;28;20029;-35
2021/08/10 01:56:06;;;;;;;4.32;3.92;;;23.40;58.40;;;;;;5023891;28;20025;-35
2021/08/10 01:58:32;;;;;;;4.63;4.15;;;23.30;58.60;;;;;;5082807;28;20028;-36
2021/08/10 02:00:58;;;;;;;4.60;4.03;;;23.40;58.70;;;;;;5081482;28;20020;-36
2021/08/10 02:03:25;;;;;;;4.63;4.22;;;23.40;58.70;;;;;;5081173;28;20028;-36
2021/08/10 02:05:52;;;;;;;4.75;4.35;;;23.30;58.60;;;;;;5074005;28;20030;-36
2021/08/10 02:08:18;;;;;;;4.47;4.07;;;23.40;58.60;;;;;;5054679;28;20067;-35
2021/08/10 02:10:44;;;;;;;4.53;4.13;;;23.40;59.40;;;;;;5044696;28;20111;-35
2021/08/10 02:13:10;;;;;;;4.50;4.10;;;23.40;59.60;;;;;;5067073;28;20024;-36
2021/08/10 02:15:38;;;;;;;4.75;4.35;;;23.50;59.50;;;;;;5061827;28;20021;-36
2021/08/10 02:18:05;;;;;;;4.65;4.15;;;23.50;59.40;;;;;;5044852;28;20052;-36
2021/08/10 02:20:31;;;;;;;4.50;4.10;;;23.50;59.50;;;;;;5062558;28;20029;-37
2021/08/10 02:22:57;;;;;;;4.22;3.85;;;23.50;59.80;;;;;;5044045;28;20053;-36
2021/08/10 02:25:23;;;;;;;4.70;4.20;;;23.50;59.90;;;;;;5061154;28;20028;-36
2021/08/10 02:27:53;;;;;;;4.70;4.30;;;23.50;60.10;;;;;;5063666;28;20045;-36
2021/08/10 02:30:22;;;;;;;4.35;3.95;;;23.50;60.20;;;;;;5065175;28;20025;-35
2021/08/10 02:32:48;;;;;;;4.32;3.88;;;23.60;60.40;;;;;;5066116;28;20037;-36
2021/08/10 02:35:18;;;;;;;4.40;4.00;;;23.60;60.60;;;;;;5065031;28;20447;-36
2021/08/10 02:37:45;;;;;;;4.30;3.90;;;23.60;60.60;;;;;;5065076;28;20058;-36
2021/08/10 02:40:11;;;;;;;4.78;4.38;;;23.60;60.80;;;;;;5048630;28;20072;-36
2021/08/10 02:42:37;;;;;;;4.22;3.80;;;23.60;60.80;;;;;;5048401;28;20110;-36
2021/08/10 02:45:04;;;;;;;4.60;4.18;;;23.60;60.70;;;;;;5079572;28;20088;-36
2021/08/10 02:47:30;;;;;;;4.95;4.43;;;23.60;60.80;;;;;;5086179;28;20032;-36
2021/08/10 02:49:56;;;;;;;4.93;4.43;;;23.70;61.00;;;;;;5086271;28;20097;-36
2021/08/10 02:52:23;;;;;;;4.78;4.25;;;23.70;61.10;;;;;;5085910;28;20035;-36
2021/08/10 02:54:49;;;;;;;4.97;4.53;;;23.70;61.40;;;;;;5086206;28;20029;-36
2021/08/10 02:57:36;;;;;;;5.32;4.82;;;23.70;61.90;;;;;;5084766;28;20028;-36
2021/08/10 03:00:09;;;;;;;4.90;4.40;;;23.70;61.90;;;;;;5086060;28;20029;-36
2021/08/10 03:02:37;;;;;;;4.72;4.25;;;23.70;61.90;;;;;;5084422;28;20060;-36
2021/08/10 03:05:10;;;;;;;5.30;4.53;;;23.80;61.90;;;;;;5084508;28;20024;-36
2021/08/10 03:07:37;;;;;;;4.72;4.30;;;23.80;62.00;;;;;;5084392;28;20049;-36
2021/08/10 03:10:04;;;;;;;5.03;4.50;;;23.80;61.90;;;;;;5084411;28;20096;-36
2021/08/10 03:12:31;;;;;;;4.95;4.45;;;23.80;61.90;;;;;;5075969;28;20559;-36
2021/08/10 03:14:57;;;;;;;4.90;4.47;;;23.80;61.80;;;;;;5068775;28;20758;-36
2021/08/10 03:17:24;;;;;;;4.95;4.45;;;23.80;61.70;;;;;;5047621;28;20021;-36
2021/08/10 03:19:50;;;;;;;4.55;4.07;;;23.90;61.70;;;;;;5047907;28;20282;-36
2021/08/10 03:22:17;;;;;;;5.13;4.57;;;23.90;61.70;;;;;;5063407;28;20043;-36
2021/08/10 03:24:44;;;;;;;4.95;4.45;;;23.90;61.70;;;;;;5062732;28;20037;-36
2021/08/10 03:27:10;;;;;;;;;;;23.90;61.70;;;;;;5064875;28;20036;-36
2021/08/10 03:29:36;;;;;;;5.13;4.55;;;23.90;61.70;;;;;;5062828;28;20373;-36
2021/08/10 03:32:04;;;;;;;4.95;4.45;;;23.90;61.70;;;;;;5046274;28;20046;-36
2021/08/10 03:34:31;;;;;;;4.93;4.43;;;23.90;61.70;;;;;;5066493;28;20071;-36
2021/08/10 03:36:57;;;;;;;4.78;4.38;;;23.90;61.70;;;;;;5082810;28;20377;-36
2021/08/10 03:39:23;;;;;;;5.00;4.50;;;23.90;61.80;;;;;;5083882;28;20036;-36
2021/08/10 03:41:49;;;;;;;5.30;4.80;;;24.00;62.00;;;;;;5084052;28;20032;-36
2021/08/10 03:44:15;;;;;;;5.13;4.63;;;24.00;62.00;;;;;;5077707;28;20017;-36
2021/08/10 03:46:42;;;;;;;5.97;4.93;;;24.00;62.10;;;;;;5082599;28;20029;-36
2021/08/10 03:49:09;;;;;;;;;;;24.00;62.10;;;;;;5084492;28;20055;-36
2021/08/10 03:51:35;;;;;;;5.13;4.25;;;24.00;62.20;;;;;;5083932;28;19909;-36
2021/08/10 03:54:02;;;;;;;5.03;4.55;;;24.00;62.20;;;;;;5082238;28;20028;-36
2021/08/10 03:56:28;;;;;;;5.10;4.57;;;24.00;62.10;;;;;;5083818;28;20043;-36
2021/08/10 03:58:54;;;;;;;5.53;4.97;;;24.00;62.10;;;;;;5083743;28;20463;-36
2021/08/10 04:01:21;;;;;;;5.57;5.07;;;24.00;62.10;;;;;;5082525;28;20025;-36
2021/08/10 04:03:47;;;;;;;5.65;5.05;;;24.00;62.10;;;;;;5081926;28;20028;-36
2021/08/10 04:06:13;;;;;;;5.20;4.70;;;24.00;62.20;;;;;;5082306;28;20024;-37
2021/08/10 04:08:39;;;;;;;5.10;4.60;;;24.00;62.10;;;;;;5082135;28;20062;-36
2021/08/10 04:11:05;;;;;;;5.63;5.00;;;24.10;62.20;;;;;;5083626;28;20078;-36
2021/08/10 04:13:32;;;;;;;5.60;5.10;;;24.00;62.10;;;;;;5077276;28;20084;-36
2021/08/10 04:16:01;;;;;;;4.93;4.43;;;24.10;62.20;;;;;;5083538;28;20095;-36
2021/08/10 04:18:27;;;;;;;5.68;5.18;;;24.10;62.20;;;;;;5083469;28;20356;-36
2021/08/10 04:20:55;;;;;;;5.30;4.80;;;24.10;62.30;;;;;;5056281;28;2133498;-44
2021/08/10 04:23:24;;;;;;;5.13;4.63;;;24.10;62.20;;;;;;5065048;28;20033;-36
2021/08/10 04:25:50;;;;;;;5.53;5.03;;;24.10;62.20;;;;;;5064092;28;20051;-36
2021/08/10 04:28:16;;;;;;;5.40;4.90;;;24.10;62.20;;;;;;5064135;28;20108;-36
2021/08/10 04:30:43;;;;;;;5.75;5.25;;;24.10;62.30;;;;;;5064127;28;20025;-36
2021/08/10 04:33:09;;;;;;;5.50;5.00;;;24.10;62.20;;;;;;5064242;28;20465;-36
2021/08/10 04:35:35;;;;;;;5.38;4.88;;;24.10;62.90;;;;;;5064091;28;20035;-36
2021/08/10 04:38:02;;;;;;;6.05;5.10;;;24.10;62.20;;;;;;5062761;28;20021;-38
2021/08/10 04:40:28;;;;;;;5.45;4.95;;;24.10;62.20;;;;;;5064226;28;20715;-36
2021/08/10 04:42:55;;;;;;;5.78;5.20;;;24.10;62.20;;;;;;5063937;28;20041;-36
2021/08/10 04:45:21;;;;;;;5.70;5.15;;;24.10;62.20;;;;;;5080884;28;20358;-38
2021/08/10 04:47:48;;;;;;;5.20;4.70;;;24.10;62.30;;;;;;5083450;28;20071;-36
2021/08/10 04:50:14;;;;;;;5.63;4.97;;;24.20;62.30;;;;;;5083206;28;20036;-36
2021/08/10 04:52:40;;;;;;;5.40;4.90;;;24.20;62.40;;;;;;5083922;28;20620;-36
2021/08/10 04:55:07;;;;;;;5.63;5.07;;;24.20;62.40;;;;;;5083455;28;20100;-36
2021/08/10 04:57:33;;;;;;;5.20;4.70;;;24.20;62.40;;;;;;5083810;28;20060;-36
2021/08/10 05:00:00;;;;;;;5.47;4.97;;;24.20;62.30;;;;;;5083532;28;20763;-36
2021/08/10 05:02:27;;;;;;;5.30;4.80;;;24.20;62.30;;;;;;5083279;28;20024;-36
2021/08/10 05:04:53;;;;;;;5.70;5.20;;;24.20;62.30;;;;;;5083590;28;20044;-36
2021/08/10 05:07:19;;;;;;;5.10;4.55;;;24.20;62.30;;;;;;5083479;28;20032;-36
2021/08/10 05:09:45;;;;;;;5.72;5.22;;;24.20;62.20;;;;;;5083383;28;20024;-36
2021/08/10 05:12:11;;;;;;;5.47;4.93;;;24.20;62.10;;;;;;5083448;28;20024;-36
2021/08/10 05:14:37;;;;;;;5.65;5.13;;;24.20;62.20;;;;;;5078553;28;20067;-37
2021/08/10 05:17:04;;;;;;;6.22;5.63;;;24.20;62.20;;;;;;5068530;28;20055;-36
2021/08/10 05:19:30;;;;;;;6.10;5.50;;;24.20;62.30;;;;;;5062047;28;20533;-36
2021/08/10 05:21:56;;;;;;;5.75;5.15;;;24.20;62.30;;;;;;5061779;28;20048;-36
2021/08/10 05:24:22;;;;;;;5.47;4.90;;;24.20;62.40;;;;;;5063220;28;20025;-35
2021/08/10 05:26:48;;;;;;;5.65;5.13;;;24.20;62.40;;;;;;5062935;28;20036;-36
2021/08/10 05:29:14;;;;;;;6.20;5.60;;;24.20;62.50;;;;;;5063025;28;20052;-36
2021/08/10 05:31:42;;;;;;;6.53;5.93;;;24.20;62.50;;;;;;5063003;28;20051;-36
2021/08/10 05:34:08;;;;;;;5.78;5.22;;;24.20;62.60;;;;;;5076739;28;20063;-36
2021/08/10 05:36:34;;;;;;;5.80;5.30;;;24.20;62.60;;;;;;5082933;28;20067;-36
2021/08/10 05:39:02;;;;;;;6.20;5.60;;;24.20;62.50;;;;;;5082954;28;20039;-36
2021/08/10 05:41:28;;;;;;;6.10;5.50;;;24.30;62.50;;;;;;5083068;28;20025;-36
2021/08/10 05:43:54;;;;;;;5.90;5.30;;;24.20;62.40;;;;;;5078197;28;20033;-36
2021/08/10 05:46:20;;;;;;;6.05;5.50;;;24.20;62.40;;;;;;5082492;28;20080;-36
2021/08/10 05:48:46;;;;;;;6.05;5.45;;;24.20;62.30;;;;;;5083010;28;20044;-36
2021/08/10 05:51:12;;;;;;;6.55;5.90;;;24.20;62.20;;;;;;5082770;28;20024;-36
2021/08/10 05:53:38;;;;;;;6.55;5.90;;;24.20;62.20;;;;;;5082709;28;20068;-36
2021/08/10 05:56:05;;;;;;;6.68;6.07;;;24.20;62.20;;;;;;5082623;28;20024;-37
2021/08/10 05:58:31;;;;;;;6.30;5.70;;;24.20;62.30;;;;;;5081402;28;20440;-36
2021/08/10 06:00:57;;;;;;;9.40;6.45;;;24.30;62.40;;;;;;5068287;28;20033;-35
2021/08/10 06:03:23;;;;;;;6.28;5.68;;;24.30;62.50;;;;;;5042803;28;20045;-36
2021/08/10 06:05:49;;;;;;;7.05;6.38;;;24.30;62.60;;;;;;5042679;28;20029;-36
2021/08/10 06:08:15;;;;;;;6.22;5.63;;;24.30;62.60;;;;;;5042585;28;20060;-36
2021/08/10 06:10:42;;;;;;;6.60;6.00;;;24.30;62.70;;;;;;5042648;28;20099;-36
2021/08/10 06:13:08;;;;;;;6.22;5.63;;;24.30;62.70;;;;;;5049095;28;20043;-36
2021/08/10 06:15:34;;;;;;;6.63;5.93;;;24.30;62.70;;;;;;5063566;28;20409;-36
2021/08/10 06:18:00;;;;;;;6.50;5.90;;;24.20;62.70;;;;;;5062505;28;20081;-36
2021/08/10 06:20:26;;;;;;;6.45;5.78;;;24.30;62.70;;;;;;5062330;28;20033;-36
2021/08/10 06:22:55;;;;;;;6.07;5.47;;;24.30;62.70;;;;;;5062255;28;20049;-36
2021/08/10 06:25:21;;;;;;;6.88;6.18;;;24.30;62.70;;;;;;5064969;28;20036;-36
2021/08/10 06:27:47;;;;;;;6.22;5.63;;;24.30;62.60;;;;;;5062583;28;20025;-36
2021/08/10 06:30:14;;;;;;;6.55;5.95;;;24.30;62.60;;;;;;5062270;28;20033;-36
2021/08/10 06:32:40;;;;;;;6.97;6.28;;;24.30;62.60;;;;;;5062184;28;20049;-36
2021/08/10 06:35:07;;;;;;;7.00;6.30;;;24.30;62.70;;;;;;5062441;28;20056;-36
2021/08/10 06:37:33;;;;;;;7.47;6.78;;;24.30;62.80;;;;;;5062040;28;20021;-36
2021/08/10 06:39:59;;;;;;;6.50;5.90;;;24.30;62.90;;;;;;5062321;28;20033;-36
2021/08/10 06:42:25;;;;;;;7.60;6.88;;;24.30;63.00;;;;;;5062372;28;20040;-36
2021/08/10 06:44:51;;;;;;;7.28;6.53;;;24.30;62.90;;;;;;5075185;28;20031;-36
2021/08/10 06:47:17;;;;;;;6.57;5.97;;;24.30;63.00;;;;;;5081868;28;20024;-36
2021/08/10 06:49:43;;;;;;;6.97;6.28;;;24.30;63.00;;;;;;5082329;28;20049;-36
2021/08/10 06:52:10;;;;;;;6.72;6.07;;;24.30;63.00;;;;;;5082133;28;20032;-36
2021/08/10 06:54:36;;;;;;;6.70;6.10;;;24.30;63.00;;;;;;5082362;28;20035;-36
2021/08/10 06:57:06;;;;;;;7.18;6.47;;;24.20;62.80;;;;;;5082004;28;20269;-36
2021/08/10 06:59:36;;;;;;;6.85;6.15;;;24.20;62.80;;;;;;5081989;28;20143;-36
2021/08/10 07:02:03;;;;;;;6.90;6.22;;;24.20;62.80;;;;;;5082112;28;20479;-36
2021/08/10 07:04:29;;;;;;;7.15;6.45;;;24.20;62.70;;;;;;5081920;28;20035;-36
2021/08/10 07:06:55;;;;;;;7.10;6.40;;;24.20;62.60;;;;;;5081957;28;20033;-37
2021/08/10 07:09:24;;;;;;;7.07;6.38;;;24.20;62.60;;;;;;5081966;28;20058;-36
2021/08/10 07:11:50;;;;;;;6.45;5.85;;;24.20;62.60;;;;;;5080693;28;20029;-36
2021/08/10 07:14:16;;;;;;;7.25;6.55;;;24.20;62.50;;;;;;5080324;28;20020;-36
2021/08/10 07:16:43;;;;;;;6.53;5.93;;;24.20;62.50;;;;;;5081300;28;20028;-36
2021/08/10 07:19:09;;;;;;;7.27;6.57;;;24.20;62.60;;;;;;5065605;28;20048;-37
2021/08/10 07:21:36;;;;;;;6.47;5.88;;;24.20;62.50;;;;;;5065501;28;20045;-36
2021/08/10 07:24:02;;;;;;;7.10;6.40;;;24.20;62.40;;;;;;5065358;28;20033;-36
2021/08/10 07:26:28;;;;;;;6.72;6.07;;;24.20;62.40;;;;;;5065311;28;20044;-36
2021/08/10 07:28:54;;;;;;;6.50;5.90;;;24.20;62.40;;;;;;5065175;28;20093;-36
2021/08/10 07:31:20;;;;;;;6.80;6.10;;;24.20;62.40;;;;;;5065321;28;20484;-36
2021/08/10 07:33:47;;;;;;;6.83;6.17;;;24.20;62.40;;;;;;5064799;28;20024;-36
2021/08/10 07:36:13;;;;;;;6.95;6.25;;;24.20;62.40;;;;;;5065202;28;20634;-36
2021/08/10 07:38:39;;;;;;;6.47;5.95;;;24.20;62.40;;;;;;5065034;28;20089;-36
2021/08/10 07:41:05;;;;;;;6.70;6.00;;;24.20;62.40;;;;;;5065273;28;20025;-36
2021/08/10 07:43:31;;;;;;;6.93;6.22;;;24.20;62.30;;;;;;5069367;28;20032;-36
2021/08/10 07:45:57;;;;;;;6.63;6.03;;;24.20;62.40;;;;;;5065174;28;20017;-36
2021/08/10 07:48:23;;;;;;;6.88;6.18;;;24.20;62.40;;;;;;5064601;28;20058;-36
2021/08/10 07:50:49;;;;;;;6.20;5.60;;;24.20;62.40;;;;;;5064986;28;20020;-36
2021/08/10 07:53:19;;;;;;;6.85;6.18;;;24.20;62.40;;;;;;5064864;28;20029;-36
2021/08/10 07:55:45;;;;;;;6.90;6.15;;;24.20;62.40;;;;;;5064876;28;20115;-36
2021/08/10 07:58:11;;;;;;;6.93;6.22;;;24.20;62.50;;;;;;5064643;28;20029;-36
2021/08/10 08:00:38;;;;;;;6.45;5.78;;;24.20;62.50;;;;;;5064730;28;20773;-36
2021/08/10 08:03:04;;;;;;;6.75;6.10;;;24.20;62.50;;;;;;5064453;28;20036;-36
2021/08/10 08:05:31;;;;;;;6.78;6.18;;;24.20;62.50;;;;;;5064843;28;20039;-36
2021/08/10 08:07:57;;;;;;;7.00;6.30;;;24.20;62.60;;;;;;5064352;28;20025;-36
2021/08/10 08:10:23;;;;;;;7.20;6.50;;;24.20;62.60;;;;;;5064665;28;20033;-36
2021/08/10 08:12:49;;;;;;;6.35;5.75;;;24.20;62.60;;;;;;5064538;28;20057;-36
2021/08/10 08:15:16;;;;;;;7.47;5.68;;;24.20;62.60;;;;;;5080828;28;20029;-36
2021/08/10 08:17:42;;;;;;;6.25;5.65;;;24.20;62.60;;;;;;5082346;28;20036;-36
2021/08/10 08:20:08;;;;;;;7.80;6.57;;;24.20;62.60;;;;;;5084712;28;20736;-36
2021/08/10 08:22:35;;;;;;;6.68;6.07;;;24.20;62.60;;;;;;5084308;28;20041;-36
2021/08/10 08:25:01;;;;;;;6.70;6.10;;;24.20;62.60;;;;;;5083212;28;20033;-36
2021/08/10 08:27:27;;;;;;;7.17;6.47;;;24.20;62.60;;;;;;5082658;28;20076;-35
2021/08/10 08:29:53;;;;;;;7.75;6.30;;;24.20;62.60;;;;;;5084270;28;20082;-36
2021/08/10 08:32:19;;;;;;;7.70;6.95;;;24.20;62.70;;;;;;5082775;28;20636;-36
2021/08/10 08:34:46;;;;;;;7.13;6.43;;;24.20;62.60;;;;;;5084261;28;20039;-36
2021/08/10 08:37:13;;;;;;;6.70;6.10;;;24.20;62.70;;;;;;5083765;28;20489;-40
2021/08/10 08:39:39;;;;;;;;;;;24.20;62.70;;;;;;5084477;28;20028;-36
2021/08/10 08:42:05;;;;;;;6.75;6.07;;;24.10;62.60;;;;;;5083966;28;19927;-36
2021/08/10 08:44:34;;;;;;;7.43;6.72;;;24.20;62.70;;;;;;5079296;28;20424;-36
2021/08/10 08:47:03;;;;;;;7.03;6.28;;;24.20;62.70;;;;;;5083890;28;20032;-36
2021/08/10 08:49:29;;;;;;;6.88;6.18;;;24.20;62.70;;;;;;5083531;28;20040;-36
2021/08/10 08:51:56;;;;;;;7.50;6.82;;;24.20;62.80;;;;;;5082602;28;20017;-36
2021/08/10 08:54:22;;;;;;;7.22;6.53;;;24.20;62.80;;;;;;5082220;28;20024;-36
2021/08/10 08:56:49;;;;;;;6.93;6.22;;;24.20;62.80;;;;;;5083786;28;20048;-36
2021/08/10 08:59:15;;;;;;;7.43;6.73;;;24.20;62.90;;;;;;5082146;28;20059;-37
2021/08/10 09:01:42;;;;;;;7.57;6.88;;;24.10;62.80;;;;;;5082321;28;20081;-36
2021/08/10 09:04:08;;;;;;;7.88;6.95;;;24.20;62.90;;;;;;5083522;28;20041;-36
2021/08/10 09:06:35;;;;;;;7.38;6.70;;;24.10;62.90;;;;;;5083594;28;20016;-36
2021/08/10 09:09:21;;;;;;;7.35;6.65;;;24.10;62.90;;;;;;5083317;28;20055;-36
2021/08/10 09:11:51;;;;;;;6.85;6.15;;;24.20;63.00;;;;;;5083402;28;20070;-36
2021/08/10 09:14:18;;;;;;;7.53;6.82;;;24.10;62.80;;;;;;5078791;28;20060;-36
2021/08/10 09:17:07;;;;;;;6.77;6.10;;;24.10;63.60;;;;;;5081878;28;20055;-36
2021/08/10 09:19:41;;;;;;;7.75;6.95;;;24.10;62.90;;;;;;5083117;28;20265;-36
2021/08/10 09:22:27;;;;;;;7.43;6.72;;;24.10;62.90;;;;;;5083203;28;20060;-36
2021/08/10 09:24:57;;;;;;;7.18;6.35;;;24.10;62.90;;;;;;5083426;28;20036;-36
2021/08/10 09:27:28;;;;;;;6.93;6.22;;;24.10;62.90;;;;;;5079376;28;20024;-36
2021/08/10 09:29:54;;;;;;;7.40;6.70;;;24.10;63.00;;;;;;5062943;28;20037;-36
2021/08/10 09:32:21;;;;;;;8.37;7.20;;;24.10;63.00;;;;;;5062988;28;20033;-36
2021/08/10 09:35:24;;;;;;;7.75;7.03;;;24.10;63.00;;;;;;5063085;28;20044;-36
2021/08/10 09:38:11;;;;;;;8.05;7.25;;;24.10;63.00;;;;;;5020379;28;20029;-36
2021/08/10 09:40:48;;;;;;;7.18;6.47;;;24.10;63.00;;;;;;5020658;28;20038;-36
2021/08/10 09:43:32;;;;;;;7.55;6.85;;;24.10;63.10;;;;;;5020473;28;20466;-36
2021/08/10 09:46:17;;;;;;;8.30;7.50;;;24.10;63.20;;;;;;4985786;28;20046;-36
2021/08/10 09:48:49;;;;;;;7.60;6.85;;;24.10;63.10;;;;;;5000355;28;20121;-35
2021/08/10 09:51:17;;;;;;;7.53;6.82;;;24.10;63.20;;;;;;5000918;28;20023;-36
2021/08/10 09:53:53;;;;;;;8.10;7.30;;;24.10;63.10;;;;;;5016875;28;20037;-36
2021/08/10 09:56:19;;;;;;;7.68;6.97;;;24.10;63.10;;;;;;5000298;28;20053;-36
2021/08/10 09:59:00;;;;;;;7.38;6.68;;;24.10;63.10;;;;;;5000810;28;20238;-36
2021/08/10 10:01:37;;;;;;;7.80;7.10;;;24.10;63.20;;;;;;5000549;28;20054;-36
2021/08/10 10:04:13;;;;;;;7.50;6.80;;;24.10;63.20;;;;;;5000644;28;20121;-36
2021/08/10 10:06:39;;;;;;;7.80;7.00;;;24.10;63.20;;;;;;5000711;28;20034;-36
2021/08/10 10:09:05;;;;;;;7.60;6.80;;;24.10;63.20;;;;;;5032693;28;20041;-36
2021/08/10 10:11:34;;;;;;;7.53;6.75;;;24.10;63.30;;;;;;5035695;28;20804;-36
2021/08/10 10:14:01;;;;;;;7.75;6.95;;;24.10;63.30;;;;;;5067093;28;20029;-36
2021/08/10 10:16:30;;;;;;;8.70;7.80;;;24.10;63.30;;;;;;5060914;28;20067;-36
2021/08/10 10:19:02;;;;;;;8.27;7.47;;;24.10;63.40;;;;;;5062701;28;20392;-36
2021/08/10 10:21:28;;;;;;;8.00;7.20;;;24.10;63.40;;;;;;5061141;28;20108;-36
2021/08/10 10:23:57;;;;;;;7.85;7.05;;;24.10;63.40;;;;;;5061166;28;20056;-36
2021/08/10 10:26:23;;;;;;;8.30;7.25;;;24.10;63.50;;;;;;5044825;28;20025;-36
2021/08/10 10:28:49;;;;;;;8.32;7.47;;;24.10;63.50;;;;;;5060959;28;20029;-36
2021/08/10 10:31:16;;;;;;;8.00;7.20;;;24.10;63.50;;;;;;5061065;28;20393;-36
2021/08/10 10:33:42;;;;;;;7.68;6.95;;;24.10;63.60;;;;;;5060974;28;20037;-36
2021/08/10 10:36:08;;;;;;;8.40;7.60;;;24.10;63.50;;;;;;5062269;28;20119;-36
2021/08/10 10:38:35;;;;;;;7.90;7.10;;;24.10;63.50;;;;;;5062396;28;20029;-36
2021/08/10 10:41:01;;;;;;;7.85;7.15;;;24.10;63.60;;;;;;5062463;28;20064;-36
2021/08/10 10:43:27;;;;;;;8.07;7.25;;;24.10;63.70;;;;;;5065457;28;20031;-38
2021/08/10 10:45:54;;;;;;;7.47;6.78;;;24.10;63.60;;;;;;5060732;28;20025;-36
2021/08/10 10:48:26;;;;;;;7.72;6.93;;;24.10;63.70;;;;;;5063624;28;20088;-36
2021/08/10 10:51:11;;;;;;;8.27;7.47;;;24.10;63.70;;;;;;5066362;28;20037;-36
2021/08/10 10:53:44;;;;;;;7.72;6.93;;;24.00;63.60;;;;;;5066174;28;20032;-36
2021/08/10 10:56:26;;;;;;;8.07;7.28;;;24.00;63.60;;;;;;5064685;28;20063;-36
2021/08/10 10:58:56;;;;;;;7.78;7.00;;;24.00;63.60;;;;;;5065986;28;20083;-36
2021/08/10 11:01:31;;;;;;;8.32;7.50;;;24.00;63.70;;;;;;5064866;28;20029;-36
2021/08/10 11:04:03;;;;;;;8.02;7.22;;;24.00;63.70;;;;;;5065966;28;20033;-36
2021/08/10 11:06:31;;;;;;;8.05;7.25;;;24.00;63.70;;;;;;5065845;28;20056;-36
2021/08/10 11:08:58;;;;;;;8.80;7.90;;;24.00;63.80;;;;;;5065782;28;20037;-36
2021/08/10 11:11:42;;;;;;;;;;;24.00;63.80;;;;;;5066218;28;20017;-36
2021/08/10 11:14:37;;;;;;;7.85;7.05;;;24.00;63.80;;;;;;5073044;28;19912;-36
2021/08/10 11:17:10;;;;;;;8.18;7.38;;;24.00;63.80;;;;;;5085404;28;20091;-36
2021/08/10 11:19:37;;;;;;;8.10;7.30;;;24.00;63.80;;;;;;5085715;28;20709;-36
2021/08/10 11:22:16;;;;;;;7.93;7.18;;;24.00;63.80;;;;;;5079240;28;20122;-36
2021/08/10 11:24:52;;;;;;;8.30;7.43;;;24.00;63.90;;;;;;5065651;28;20081;-36
2021/08/10 11:27:43;;;;;;;8.52;7.72;;;24.00;63.80;;;;;;5065419;28;20104;-35
2021/08/10 11:30:44;;;;;;;8.75;7.47;;;24.00;63.90;;;;;;5065605;28;20400;-36
2021/08/10 11:33:33;;;;;;;8.50;7.68;;;24.00;63.90;;;;;;5065426;28;20028;-36
2021/08/10 11:36:12;;;;;;;8.23;7.32;;;24.00;63.90;;;;;;5070599;28;20016;-36
2021/08/10 11:38:44;;;;;;;8.07;7.28;;;24.00;63.90;;;;;;5085464;28;20036;-36
2021/08/10 11:41:14;;;;;;;8.43;7.25;;;24.00;63.90;;;;;;5085322;28;20028;-36
2021/08/10 11:43:48;;;;;;;8.18;7.38;;;24.00;63.90;;;;;;5079535;28;20024;-36
2021/08/10 11:46:27;;;;;;;8.55;7.45;;;24.00;64.00;;;;;;5085156;28;20080;-39
2021/08/10 11:48:55;;;;;;;8.77;7.88;;;24.00;64.00;;;;;;5085062;28;20489;-36
2021/08/10 11:51:23;;;;;;;8.50;7.70;;;24.00;64.00;;;;;;5085264;28;20107;-36
2021/08/10 11:53:50;;;;;;;9.15;7.60;;;24.00;64.00;;;;;;5085186;28;20024;-36
2021/08/10 11:56:54;;;;;;;8.00;7.20;;;24.00;64.00;;;;;;5084892;28;20095;-36
2021/08/10 11:59:21;;;;;;;8.27;7.47;;;24.00;64.00;;;;;;5041983;28;20033;-36
2021/08/10 12:01:48;;;;;;;8.02;7.22;;;24.00;64.10;;;;;;5042172;28;20052;-36
2021/08/10 12:04:18;;;;;;;8.47;7.60;;;24.00;64.10;;;;;;5025813;28;20026;-36
2021/08/10 12:06:48;;;;;;;8.73;7.82;;;24.00;64.10;;;;;;5041921;28;20075;-35
2021/08/10 12:09:16;;;;;;;8.40;7.60;;;24.00;64.10;;;;;;5009870;28;20037;-36
2021/08/10 12:11:43;;;;;;;8.55;7.75;;;24.00;64.10;;;;;;5042290;28;20033;-36
2021/08/10 12:14:17;;;;;;;8.07;7.22;;;24.00;64.10;;;;;;5035677;28;20033;-36
2021/08/10 12:17:03;;;;;;;8.60;7.78;;;24.00;64.10;;;;;;5041721;28;20040;-41
2021/08/10 12:19:45;;;;;;;8.70;7.72;;;24.00;64.10;;;;;;5041828;28;20048;-36
2021/08/10 12:22:21;;;;;;;8.60;7.80;;;24.00;64.20;;;;;;5041911;28;20541;-40
2021/08/10 12:24:48;;;;;;;8.57;7.70;;;23.90;64.10;;;;;;5041825;28;20089;-36
2021/08/10 12:27:15;;;;;;;9.15;8.25;;;23.90;64.00;;;;;;5041652;28;20486;-36
2021/08/10 12:29:46;;;;;;;7.65;6.90;;;23.90;64.00;;;;;;5041707;28;20161;-36
2021/08/10 12:32:13;;;;;;;8.77;7.88;;;23.90;64.00;;;;;;5038230;28;20025;-36
2021/08/10 12:34:41;;;;;;;8.27;7.43;;;23.90;64.00;;;;;;5064560;28;20036;-36
2021/08/10 12:37:08;;;;;;;8.57;7.78;;;23.90;64.00;;;;;;5064271;28;20029;-36
2021/08/10 12:39:41;;;;;;;8.52;7.72;;;23.90;64.00;;;;;;5064325;28;20025;-36
2021/08/10 12:42:08;;;;;;;8.07;7.28;;;24.00;64.10;;;;;;5046637;28;20056;-36
2021/08/10 12:44:34;;;;;;;8.03;7.23;;;24.00;64.00;;;;;;5062782;28;20029;-36
2021/08/10 12:47:01;;;;;;;7.65;6.95;;;24.00;64.00;;;;;;5079335;28;20574;-36
2021/08/10 12:49:41;;;;;;;8.30;7.50;;;24.00;64.00;;;;;;5063975;28;20033;-43
2021/08/10 12:52:10;;;;;;;8.73;7.90;;;24.00;64.10;;;;;;5062641;28;20029;-36
2021/08/10 12:54:46;;;;;;;8.30;7.50;;;24.00;64.00;;;;;;5064039;28;20025;-36
2021/08/10 12:57:20;;;;;;;7.47;6.78;;;24.00;64.00;;;;;;5063737;28;20104;-36